createdAt,value
2024-05-09T00:00:10.445Z,81.70
2024-05-09T00:03:28.924Z,81.59
2024-05-09T00:06:46.868Z,81.04
2024-05-09T00:10:05.564Z,81.55
2024-05-09T00:13:23.879Z,81.25
2024-05-09T00:16:41.379Z,81.13
2024-05-09T00:19:58.878Z,81.34
2024-05-09T00:23:16.771Z,81.35
2024-05-09T00:26:34.421Z,81.41
2024-05-09T00:29:51.920Z,81.59
2024-05-09T00:33:10.805Z,81.51
2024-05-09T00:36:28.759Z,81.85
2024-05-09T00:39:46.320Z,81.40
2024-05-09T00:43:03.937Z,81.18
2024-05-09T00:46:21.591Z,81.72
2024-05-09T00:49:39.566Z,81.26
2024-05-09T00:52:57.536Z,81.06
2024-05-09T00:56:17.785Z,81.60
2024-05-09T00:59:35.565Z,81.55
2024-05-09T01:02:53.473Z,81.09
2024-05-09T01:06:11.938Z,80.92
2024-05-09T01:09:29.517Z,80.35
2024-05-09T01:12:47.317Z,79.93
2024-05-09T01:16:05.078Z,80.23
2024-05-09T01:19:29.225Z,80.48
2024-05-09T01:22:49.319Z,81.24
2024-05-09T01:26:06.898Z,81.27
2024-05-09T01:29:26.017Z,81.09
2024-05-09T01:32:43.763Z,81.98
2024-05-09T01:36:01.850Z,82.33
2024-05-09T01:39:19.497Z,83.11
2024-05-09T01:42:37.260Z,83.66
2024-05-09T01:45:54.872Z,84.92
2024-05-09T01:49:12.614Z,84.13
2024-05-09T01:52:30.391Z,85.02
2024-05-09T01:55:48.213Z,85.00
2024-05-09T01:59:05.682Z,85.37
2024-05-09T02:02:25.039Z,86.02
2024-05-09T02:05:42.831Z,85.99
2024-05-09T02:09:00.749Z,86.68
2024-05-09T02:12:18.538Z,87.16
2024-05-09T02:15:36.263Z,87.32
2024-05-09T02:18:53.914Z,87.44
2024-05-09T02:22:11.538Z,88.76
2024-05-09T02:25:31.604Z,88.99
2024-05-09T02:28:49.328Z,88.96
2024-05-09T02:32:07.184Z,89.44
2024-05-09T02:35:24.583Z,89.33
2024-05-09T02:38:42.434Z,88.81
2024-05-09T02:41:59.917Z,89.04
2024-05-09T02:45:17.879Z,89.08
2024-05-09T02:48:35.602Z,89.52
2024-05-09T02:51:55.795Z,88.97
2024-05-09T02:55:13.512Z,88.72
2024-05-09T02:58:31.154Z,88.94
2024-05-09T03:01:48.870Z,88.71
2024-05-09T03:05:06.582Z,88.76
2024-05-09T03:08:24.436Z,88.95
2024-05-09T03:11:42.375Z,88.96
2024-05-09T03:15:01.766Z,89.50
2024-05-09T03:18:19.608Z,90.07
2024-05-09T03:21:36.943Z,90.23
2024-05-09T03:24:54.590Z,90.51
2024-05-09T03:28:13.209Z,90.79
2024-05-09T03:31:30.877Z,91.49
2024-05-09T03:34:50.173Z,92.10
2024-05-09T03:38:07.678Z,92.02
2024-05-09T03:41:26.817Z,92.41
2024-05-09T03:44:44.347Z,92.07
2024-05-09T03:48:01.908Z,93.08
2024-05-09T03:51:19.816Z,92.85
2024-05-09T03:54:37.693Z,93.22
2024-05-09T03:57:55.283Z,93.37
2024-05-09T04:01:13.169Z,93.52
2024-05-09T04:04:30.878Z,93.83
2024-05-09T04:07:50.637Z,93.21
2024-05-09T04:11:08.580Z,93.23
2024-05-09T04:14:26.439Z,92.39
2024-05-09T04:17:45.350Z,92.52
2024-05-09T04:21:03.328Z,91.94
2024-05-09T04:24:21.043Z,92.13
2024-05-09T04:27:38.612Z,90.69
2024-05-09T04:30:56.131Z,90.51
2024-05-09T04:34:14.407Z,90.23
2024-05-09T04:37:32.010Z,88.94
2024-05-09T04:40:49.211Z,85.82
2024-05-09T04:44:06.819Z,83.53
2024-05-09T04:47:24.474Z,82.13
2024-05-09T04:50:42.344Z,81.74
2024-05-09T04:54:00.194Z,80.32
2024-05-09T04:57:17.751Z,79.21
2024-05-09T05:00:37.509Z,78.87
2024-05-09T05:03:56.246Z,78.09
2024-05-09T05:07:14.326Z,77.14
2024-05-09T05:10:36.119Z,76.57
2024-05-09T05:13:52.007Z,76.14
2024-05-09T05:17:11.411Z,74.89
2024-05-09T05:20:33.562Z,74.22
2024-05-09T05:23:48.736Z,73.52
2024-05-09T05:27:06.507Z,72.78
2024-05-09T05:30:29.092Z,72.13
2024-05-09T05:33:43.271Z,68.98
2024-05-09T05:37:01.020Z,66.94
2024-05-09T05:40:28.149Z,65.01
2024-05-09T05:43:38.928Z,63.44
2024-05-09T05:46:56.583Z,61.54
2024-05-09T05:59:15.611Z,56.46
2024-05-09T06:02:33.426Z,54.97
2024-05-09T06:05:51.551Z,55.02
2024-05-09T06:09:09.179Z,54.97
2024-05-09T06:12:26.525Z,54.27
2024-05-09T06:15:44.459Z,54.12
2024-05-09T06:19:02.078Z,53.85
2024-05-09T06:22:19.475Z,53.69
2024-05-09T06:25:36.800Z,52.08
2024-05-09T06:28:54.560Z,51.48
2024-05-09T15:12:10.563Z,28.54
2024-05-09T15:15:28.474Z,30.58
2024-05-09T15:18:46.313Z,27.92
2024-05-09T15:22:04.038Z,28.64
2024-05-09T15:25:21.696Z,28.77
2024-05-09T15:28:39.050Z,30.52
2024-05-09T15:31:56.387Z,28.56
2024-05-09T15:35:15.195Z,30.06
2024-05-09T15:38:32.567Z,29.91
2024-05-09T15:41:50.071Z,30.36
2024-05-09T15:45:08.779Z,31.19
2024-05-09T15:48:26.798Z,30.44
2024-05-09T15:51:44.137Z,29.82
2024-05-09T15:55:01.812Z,29.83
2024-05-09T15:58:22.324Z,30.16
2024-05-09T16:01:39.761Z,29.80
2024-05-09T16:04:58.267Z,29.54
2024-05-09T16:08:18.466Z,29.82
2024-05-09T16:11:36.171Z,29.15
2024-05-09T16:14:54.250Z,29.67
2024-05-09T16:18:12.972Z,31.10
2024-05-09T16:21:30.870Z,30.55
2024-05-09T16:24:48.650Z,30.22
2024-05-09T16:28:09.879Z,31.10
2024-05-09T16:31:26.038Z,29.93
2024-05-09T16:34:43.615Z,30.81
2024-05-09T16:38:01.691Z,31.43
2024-05-09T16:41:20.782Z,31.12
2024-05-09T16:44:38.501Z,31.91
2024-05-09T16:47:56.515Z,32.23
2024-05-09T16:51:14.603Z,33.35
2024-05-09T16:54:32.579Z,33.29
2024-05-09T16:57:50.472Z,33.32
2024-05-09T17:01:08.352Z,32.56
2024-05-09T17:04:26.192Z,32.67
2024-05-09T17:07:44.213Z,33.82
2024-05-09T17:11:02.289Z,32.67
2024-05-09T17:14:20.485Z,33.55
2024-05-09T17:17:38.450Z,33.54
2024-05-09T17:20:56.989Z,34.42
2024-05-09T17:24:15.408Z,34.73
2024-05-09T17:27:33.349Z,34.47
2024-05-09T17:30:51.290Z,35.65
2024-05-09T17:34:09.137Z,34.63
2024-05-09T17:37:27.875Z,36.49
2024-05-09T17:40:45.784Z,38.25
2024-05-09T17:44:03.346Z,38.46
2024-05-09T17:47:22.709Z,38.27
2024-05-09T17:50:41.404Z,38.47
2024-05-09T17:53:59.964Z,39.52
2024-05-09T17:57:19.252Z,39.80
2024-05-09T18:00:40.405Z,40.04
2024-05-09T18:03:59.797Z,38.27
2024-05-09T18:07:17.741Z,38.67
2024-05-09T18:10:38.742Z,39.27
2024-05-09T18:13:56.345Z,40.45
2024-05-09T18:17:14.778Z,41.28
2024-05-09T18:20:41.343Z,41.76
2024-05-09T18:23:56.738Z,42.35
2024-05-09T18:27:16.079Z,41.93
2024-05-09T18:30:36.156Z,41.71
2024-05-09T18:33:54.441Z,41.22
2024-05-09T18:37:14.198Z,41.40
2024-05-09T18:40:35.974Z,43.28
2024-05-09T18:43:54.278Z,42.82
2024-05-09T18:47:13.732Z,44.42
2024-05-09T18:50:37.252Z,44.40
2024-05-09T18:53:53.442Z,45.15
2024-05-09T18:57:11.698Z,45.48
2024-05-09T19:00:35.357Z,44.87
2024-05-09T19:03:50.001Z,44.91
2024-05-09T19:07:08.244Z,45.77
2024-05-09T19:10:32.273Z,46.25
2024-05-09T19:13:46.212Z,47.30
2024-05-09T19:17:03.968Z,47.95
2024-05-09T19:20:28.620Z,48.59
2024-05-09T19:23:47.186Z,48.43
2024-05-09T19:27:03.009Z,48.22
2024-05-09T19:30:29.773Z,47.97
2024-05-09T19:33:41.988Z,48.46
2024-05-09T19:37:00.949Z,48.19
2024-05-09T19:40:28.627Z,49.02
2024-05-09T19:43:43.282Z,52.77
2024-05-09T19:47:01.324Z,55.29
2024-05-09T19:50:30.217Z,56.65
2024-05-09T19:53:41.251Z,56.42
2024-05-09T19:56:59.167Z,57.48
2024-05-09T20:00:26.005Z,58.13
2024-05-09T20:03:39.442Z,58.70
2024-05-09T20:06:58.691Z,58.83
2024-05-09T20:10:23.692Z,58.33
2024-05-09T20:13:36.919Z,59.11
2024-05-09T20:16:55.627Z,59.05
2024-05-09T20:20:27.355Z,59.59
2024-05-09T20:23:36.004Z,60.79
2024-05-09T20:26:54.223Z,60.15
2024-05-09T20:30:24.733Z,61.01
2024-05-09T20:33:39.110Z,61.63
2024-05-09T20:36:59.114Z,61.48
2024-05-09T20:40:28.773Z,61.59
2024-05-09T20:43:45.134Z,62.18
2024-05-09T20:47:13.165Z,62.54
2024-05-09T20:50:39.811Z,63.27
2024-05-09T20:53:57.128Z,62.74
2024-05-09T20:57:20.213Z,62.52
2024-05-09T21:00:42.553Z,63.40
2024-05-09T21:04:00.591Z,64.31
2024-05-09T21:07:18.800Z,64.28
2024-05-09T21:10:37.492Z,64.50
2024-05-09T21:13:59.343Z,64.09
2024-05-09T21:17:17.392Z,64.97
2024-05-09T21:20:35.594Z,65.55
2024-05-09T21:23:53.417Z,66.40
2024-05-09T21:27:11.835Z,65.71
2024-05-09T21:30:41.247Z,65.76
2024-05-09T21:33:56.362Z,65.96
2024-05-09T21:37:17.687Z,66.61
2024-05-09T21:40:41.387Z,67.66
2024-05-09T21:44:08.162Z,67.94
2024-05-09T21:47:27.602Z,68.40
2024-05-09T21:50:45.640Z,69.10
2024-05-09T21:54:03.732Z,69.12
2024-05-09T21:57:25.501Z,70.36
2024-05-09T22:00:46.381Z,70.18
2024-05-09T22:04:07.237Z,70.80
2024-05-09T22:07:25.772Z,71.24
2024-05-09T22:10:43.647Z,71.26
2024-05-09T22:14:01.465Z,70.60
2024-05-09T22:17:19.156Z,70.08
2024-05-09T22:20:39.284Z,70.31
2024-05-09T22:23:58.536Z,69.89
2024-05-09T22:27:16.482Z,71.24
2024-05-09T22:30:37.960Z,71.53
2024-05-09T22:33:54.600Z,71.47
2024-05-09T22:37:12.490Z,71.47
2024-05-09T22:40:39.129Z,71.54
2024-05-09T22:43:50.136Z,71.68
2024-05-09T22:47:07.657Z,71.91
2024-05-09T22:50:27.025Z,72.59
2024-05-09T22:53:44.291Z,73.02
2024-05-09T22:57:01.941Z,72.82
2024-05-09T23:00:29.067Z,73.59
2024-05-09T23:03:42.252Z,74.31
2024-05-09T23:07:01.015Z,74.99
2024-05-09T23:10:27.421Z,75.23
2024-05-09T23:13:38.755Z,74.73
2024-05-09T23:16:56.205Z,75.30
2024-05-09T23:20:22.061Z,75.47
2024-05-09T23:23:36.124Z,75.79
2024-05-09T23:26:53.781Z,75.92
2024-05-09T23:30:18.328Z,76.05
2024-05-09T23:33:32.724Z,77.78
2024-05-09T23:36:50.558Z,78.98
2024-05-09T23:40:09.708Z,79.73
2024-05-09T23:43:27.792Z,80.15
2024-05-09T23:46:45.523Z,79.34
2024-05-09T23:50:05.171Z,80.19
2024-05-09T23:53:23.096Z,80.05
2024-05-09T23:56:40.698Z,80.11
2024-05-09T23:59:58.986Z,79.81
